Time;durP1;ratioP1;P1;durP2;ratioP2;P2;SDS_P1;SDS_P2;PMS_P1;PMS_P2;Temp;Humidity;BMP_temperature;BMP_pressure;BME280_temperature;BME280_humidity;BME280_pressure;Samples;Min_cycle;Max_cycle;Signal;HPM_P1;HPM_P2
2024/02/26 00:02:07;;;;;;;;;;;17.80;63.80;;;;;;5039994;28;1461;-68
2024/02/26 00:04:32;;;;;;;;;;;17.80;63.70;;;;;;5043760;28;1538;-68
2024/02/26 00:06:58;;;;;;;;;;;17.80;63.80;;;;;;5042067;28;1968;-69
2024/02/26 00:09:23;;;;;;;;;;;17.80;63.80;;;;;;5037289;28;1568;-69
2024/02/26 00:11:49;;;;;;;;;;;17.80;63.80;;;;;;5043564;28;1803;-69
2024/02/26 00:14:14;;;;;;;;;;;17.80;63.80;;;;;;5042138;28;1222;-70
2024/02/26 00:16:40;;;;;;;;;;;17.70;63.70;;;;;;5038846;28;1025;-69
2024/02/26 00:19:06;;;;;;;;;;;17.70;63.80;;;;;;5037942;28;1262;-69
2024/02/26 00:21:31;;;;;;;;;;;17.80;63.80;;;;;;5040458;28;1378;-70
2024/02/26 00:23:57;;;;;;;;;;;17.80;63.80;;;;;;5039355;28;1206;-70
2024/02/26 00:26:22;;;;;;;;;;;17.80;63.80;;;;;;5038393;28;1938;-70
2024/02/26 00:28:47;;;;;;;;;;;17.70;63.80;;;;;;5035941;28;1633;-70
2024/02/26 00:31:13;;;;;;;;;;;17.80;63.90;;;;;;5040273;28;1528;-70
2024/02/26 00:33:38;;;;;;;;;;;17.70;63.80;;;;;;5037282;28;1580;-70
2024/02/26 00:36:04;;;;;;;;;;;17.70;63.80;;;;;;5038672;28;1506;-70
2024/02/26 00:38:30;;;;;;;;;;;17.70;63.80;;;;;;5038006;28;1551;-70
2024/02/26 00:40:55;;;;;;;;;;;17.70;63.80;;;;;;5038770;28;1476;-70
2024/02/26 00:43:21;;;;;;;;;;;17.70;63.80;;;;;;5036672;28;1753;-70
2024/02/26 00:45:47;;;;;;;;;;;17.70;63.90;;;;;;5038398;28;1556;-70
2024/02/26 00:48:13;;;;;;;;;;;17.70;63.90;;;;;;5039539;28;1886;-69
2024/02/26 00:50:39;;;;;;;;;;;17.70;63.90;;;;;;5037770;28;1609;-69
2024/02/26 00:53:05;;;;;;;;;;;17.70;63.90;;;;;;5034584;28;1718;-69
2024/02/26 00:55:30;;;;;;;;;;;17.70;63.90;;;;;;5035569;28;1037;-69
2024/02/26 00:57:56;;;;;;;;;;;17.70;63.90;;;;;;5039318;28;1195;-69
2024/02/26 01:00:21;;;;;;;;;;;17.70;63.90;;;;;;5038119;28;1592;-69
2024/02/26 01:02:47;;;;;;;;;;;17.70;63.90;;;;;;5039090;28;1554;-70
2024/02/26 01:05:13;;;;;;;;;;;17.70;63.90;;;;;;5036464;28;1402;-71
2024/02/26 01:07:39;;;;;;;;;;;17.70;63.90;;;;;;5037968;28;1895;-70
2024/02/26 01:10:05;;;;;;;;;;;17.70;63.90;;;;;;5037717;28;1393;-69
2024/02/26 01:12:31;;;;;;;;;;;17.70;64.00;;;;;;5044142;28;1531;-69
2024/02/26 01:14:56;;;;;;;;;;;17.70;64.00;;;;;;5039212;28;1465;-70
2024/02/26 01:17:22;;;;;;;;;;;17.70;64.00;;;;;;5040087;28;1524;-70
2024/02/26 01:19:47;;;;;;;;;;;17.70;64.00;;;;;;5042538;28;1490;-70
2024/02/26 01:22:13;;;;;;;;;;;17.70;64.00;;;;;;5042516;28;1482;-70
2024/02/26 01:24:38;;;;;;;;;;;17.70;64.00;;;;;;5043021;28;1196;-69
2024/02/26 01:27:04;;;;;;;;;;;17.70;64.00;;;;;;5041185;28;1979;-70
2024/02/26 01:29:29;;;;;;;;;;;17.70;64.00;;;;;;5039268;28;1304;-69
2024/02/26 01:31:54;;;;;;;;;;;17.70;64.00;;;;;;5042238;28;1337;-70
2024/02/26 01:34:20;;;;;;;;;;;17.70;64.00;;;;;;5038701;28;1501;-70
2024/02/26 01:36:45;;;;;;;;;;;17.70;64.10;;;;;;5040723;28;1375;-70
2024/02/26 01:39:12;;;;;;;;;;;17.70;64.00;;;;;;5041535;28;1616;-70
2024/02/26 01:41:38;;;;;;;;;;;17.70;64.10;;;;;;5042171;28;1500;-70
2024/02/26 01:44:03;;;;;;;;;;;17.70;64.10;;;;;;5041872;28;1754;-70
2024/02/26 01:46:29;;;;;;;;;;;17.70;64.10;;;;;;5040709;28;1951;-69
2024/02/26 01:48:54;;;;;;;;;;;17.70;64.10;;;;;;5072743;28;1479;-69
2024/02/26 01:51:20;;;;;;;;;;;17.70;64.10;;;;;;5042429;28;1506;-71
2024/02/26 01:53:45;;;;;;;;;;;17.70;64.10;;;;;;5038837;28;1369;-70
2024/02/26 01:56:12;;;;;;;;;;;17.70;64.10;;;;;;5039858;28;1210;-69
2024/02/26 01:58:37;;;;;;;;;;;17.70;64.10;;;;;;5040338;28;1424;-68
2024/02/26 02:01:03;;;;;;;;;;;17.70;64.10;;;;;;5042043;28;1407;-71
2024/02/26 02:03:28;;;;;;;;;;;17.70;64.10;;;;;;5039712;28;1289;-70
2024/02/26 02:05:54;;;;;;;;;;;17.70;64.10;;;;;;5040487;28;1411;-71
2024/02/26 02:08:19;;;;;;;;;;;17.70;64.20;;;;;;5039610;28;1906;-71
2024/02/26 02:10:47;;;;;;;;;;;17.70;64.10;;;;;;5040272;28;1386;-71
2024/02/26 02:13:13;;;;;;;;;;;17.70;64.20;;;;;;5039852;28;1269;-70
2024/02/26 02:15:39;;;;;;;;;;;17.70;64.20;;;;;;5042447;28;1447;-71
2024/02/26 02:18:04;;;;;;;;;;;17.70;64.20;;;;;;5041462;28;1643;-71
2024/02/26 02:20:36;;;;;;;;;;;17.70;64.20;;;;;;5038825;28;1557;-70
2024/02/26 02:23:02;;;;;;;;;;;17.70;64.20;;;;;;5037475;28;1393;-70
2024/02/26 02:25:28;;;;;;;;;;;17.70;64.20;;;;;;5074311;28;1438;-69
2024/02/26 02:27:53;;;;;;;;;;;17.70;64.20;;;;;;5039840;28;1911;-71
2024/02/26 02:30:19;;;;;;;;;;;17.70;64.20;;;;;;5035790;28;1451;-68
2024/02/26 02:32:44;;;;;;;;;;;17.70;64.20;;;;;;5040458;28;1550;-69
2024/02/26 02:35:10;;;;;;;;;;;17.70;64.30;;;;;;5041071;28;1712;-69
2024/02/26 02:37:35;;;;;;;;;;;17.70;64.20;;;;;;5039651;28;1236;-69
2024/02/26 02:40:00;;;;;;;;;;;17.70;64.30;;;;;;5040547;28;1573;-69
2024/02/26 02:42:26;;;;;;;;;;;17.70;64.30;;;;;;5041432;28;1285;-68
2024/02/26 02:44:51;;;;;;;;;;;17.70;64.30;;;;;;5041516;28;1440;-70
2024/02/26 02:47:17;;;;;;;;;;;17.70;64.30;;;;;;5040922;28;1898;-72
2024/02/26 02:49:42;;;;;;;;;;;17.70;64.30;;;;;;5043049;28;1494;-72
2024/02/26 02:52:08;;;;;;;;;;;17.70;64.30;;;;;;5043425;28;1374;-70
2024/02/26 02:54:33;;;;;;;;;;;17.70;64.30;;;;;;5041290;28;1253;-70
2024/02/26 02:56:59;;;;;;;;;;;17.70;64.30;;;;;;5038663;28;1339;-70
2024/02/26 02:59:24;;;;;;;;;;;17.70;64.30;;;;;;5038914;28;1408;-70
2024/02/26 03:01:50;;;;;;;;;;;17.70;64.30;;;;;;5037904;28;1523;-70
2024/02/26 03:04:15;;;;;;;;;;;17.70;64.30;;;;;;5040327;28;1566;-70
2024/02/26 03:06:41;;;;;;;;;;;17.70;64.30;;;;;;5040344;28;1961;-68
2024/02/26 03:09:06;;;;;;;;;;;17.70;64.30;;;;;;5041063;28;1460;-68
2024/02/26 03:11:32;;;;;;;;;;;17.70;64.30;;;;;;5039240;28;1263;-69
2024/02/26 03:13:57;;;;;;;;;;;17.70;64.30;;;;;;5039055;28;1508;-68
2024/02/26 03:16:23;;;;;;;;;;;17.70;64.30;;;;;;5040005;28;1232;-70
2024/02/26 03:18:48;;;;;;;;;;;17.70;64.30;;;;;;5041726;28;1061;-70
2024/02/26 03:21:14;;;;;;;;;;;17.70;64.30;;;;;;5039447;28;1268;-70
2024/02/26 03:23:39;;;;;;;;;;;17.60;64.30;;;;;;5040892;28;1317;-70
2024/02/26 03:26:05;;;;;;;;;;;17.70;64.30;;;;;;5037769;28;1201;-69
2024/02/26 03:28:32;;;;;;;;;;;17.70;64.30;;;;;;5046767;28;1902;-70
2024/02/26 03:30:58;;;;;;;;;;;17.70;64.30;;;;;;5041590;28;1578;-70
2024/02/26 03:33:24;;;;;;;;;;;17.70;64.30;;;;;;5030251;28;1509;-70
2024/02/26 03:35:49;;;;;;;;;;;17.60;64.30;;;;;;5040564;28;1381;-70
2024/02/26 03:38:15;;;;;;;;;;;17.70;64.30;;;;;;5038666;28;1639;-71
2024/02/26 03:40:40;;;;;;;;;;;17.70;64.30;;;;;;5039075;28;1468;-70
2024/02/26 03:43:07;;;;;;;;;;;17.70;64.30;;;;;;5038753;28;868;-70
2024/02/26 03:45:33;;;;;;;;;;;17.60;64.30;;;;;;5037356;28;1254;-70
2024/02/26 03:47:58;;;;;;;;;;;17.70;64.40;;;;;;5037181;28;1938;-70
2024/02/26 03:50:24;;;;;;;;;;;17.70;64.40;;;;;;5040449;28;1455;-71
2024/02/26 03:52:49;;;;;;;;;;;17.70;64.40;;;;;;5039842;28;1529;-70
2024/02/26 03:55:14;;;;;;;;;;;17.70;64.40;;;;;;5039759;28;1716;-70
2024/02/26 03:57:40;;;;;;;;;;;17.70;64.40;;;;;;5038185;28;1528;-70
2024/02/26 04:00:06;;;;;;;;;;;17.70;64.40;;;;;;5037837;28;1501;-70
2024/02/26 04:02:31;;;;;;;;;;;17.70;64.40;;;;;;5039749;28;1304;-70
2024/02/26 04:04:57;;;;;;;;;;;17.70;64.40;;;;;;5041036;28;1420;-70
2024/02/26 04:07:22;;;;;;;;;;;17.70;64.40;;;;;;5040607;28;2146;-70
2024/02/26 04:09:48;;;;;;;;;;;17.70;64.40;;;;;;5038376;28;1413;-71
2024/02/26 04:12:14;;;;;;;;;;;17.70;64.40;;;;;;5040134;28;1493;-70
2024/02/26 04:14:39;;;;;;;;;;;17.70;64.40;;;;;;5037777;28;1493;-70
2024/02/26 04:17:05;;;;;;;;;;;17.60;64.40;;;;;;5039266;28;1540;-70
2024/02/26 04:19:30;;;;;;;;;;;17.70;64.40;;;;;;5040930;28;1461;-70
2024/02/26 04:21:56;;;;;;;;;;;17.70;64.40;;;;;;5041542;28;1369;-70
2024/02/26 04:24:21;;;;;;;;;;;17.70;64.50;;;;;;5039176;28;1539;-70
2024/02/26 04:26:47;;;;;;;;;;;17.70;64.50;;;;;;5046530;28;1959;-69
2024/02/26 04:29:12;;;;;;;;;;;17.60;64.40;;;;;;5039493;28;1362;-69
2024/02/26 04:31:38;;;;;;;;;;;17.70;64.50;;;;;;5036843;28;1469;-70
2024/02/26 04:34:04;;;;;;;;;;;17.70;64.50;;;;;;5045748;28;1483;-71
2024/02/26 04:36:29;;;;;;;;;;;17.60;64.40;;;;;;5038100;28;1189;-70
2024/02/26 04:38:55;;;;;;;;;;;17.70;64.50;;;;;;5035896;28;1218;-70
2024/02/26 04:41:21;;;;;;;;;;;17.60;64.50;;;;;;5039290;28;1581;-72
2024/02/26 04:43:46;;;;;;;;;;;17.60;64.50;;;;;;5039655;28;1459;-70
2024/02/26 04:46:12;;;;;;;;;;;17.60;64.50;;;;;;5040732;28;1306;-69
2024/02/26 04:48:38;;;;;;;;;;;17.70;64.50;;;;;;5043482;28;1949;-70
2024/02/26 04:51:04;;;;;;;;;;;17.60;64.50;;;;;;5042397;28;1355;-70
2024/02/26 04:53:29;;;;;;;;;;;17.60;64.50;;;;;;5049534;28;1564;-70
2024/02/26 04:55:54;;;;;;;;;;;17.60;64.50;;;;;;5045172;28;1592;-69
2024/02/26 04:58:20;;;;;;;;;;;17.60;65.20;;;;;;5050618;28;1504;-69
2024/02/26 05:00:45;;;;;;;;;;;17.60;64.50;;;;;;5040939;28;1437;-70
2024/02/26 05:03:15;;;;;;;;;;;17.60;64.50;;;;;;5039041;28;1867;-69
2024/02/26 05:05:41;;;;;;;;;;;17.60;64.50;;;;;;5039448;28;1391;-69
2024/02/26 05:08:07;;;;;;;;;;;17.60;64.50;;;;;;5041843;28;1955;-72
2024/02/26 05:10:33;;;;;;;;;;;17.60;64.50;;;;;;5045011;28;1473;-72
2024/02/26 05:12:58;;;;;;;;;;;17.70;64.50;;;;;;5044843;28;1513;-72
2024/02/26 05:15:24;;;;;;;;;;;17.70;64.50;;;;;;5043287;28;1316;-71
2024/02/26 05:17:49;;;;;;;;;;;17.70;64.40;;;;;;5045993;28;1510;-72
2024/02/26 05:20:15;;;;;;;;;;;17.70;64.30;;;;;;5042813;28;1529;-72
2024/02/26 05:22:40;;;;;;;;;;;17.70;64.30;;;;;;5047438;28;1200;-72
2024/02/26 05:25:06;;;;;;;;;;;17.70;64.20;;;;;;5043974;28;1541;-72
2024/02/26 05:27:31;;;;;;;;;;;17.80;64.10;;;;;;5043121;28;1906;-72
2024/02/26 05:29:57;;;;;;;;;;;17.80;64.00;;;;;;5042433;28;1536;-72
2024/02/26 05:32:22;;;;;;;;;;;17.80;63.90;;;;;;5042126;28;1462;-71
2024/02/26 05:34:47;;;;;;;;;;;17.80;63.80;;;;;;5049797;28;1171;-72
2024/02/26 05:37:13;;;;;;;;;;;17.80;63.70;;;;;;5042580;28;1035;-72
2024/02/26 05:39:39;;;;;;;;;;;17.90;63.70;;;;;;5040513;28;1114;-72
2024/02/26 05:42:04;;;;;;;;;;;17.90;63.60;;;;;;5041720;28;1306;-72
2024/02/26 05:44:30;;;;;;;;;;;17.90;63.50;;;;;;5043902;28;1222;-73
2024/02/26 05:46:55;;;;;;;;;;;17.90;63.50;;;;;;5044510;28;1898;-71
2024/02/26 05:49:22;;;;;;;;;;;17.90;63.40;;;;;;5045644;28;1456;-72
2024/02/26 05:51:47;;;;;;;;;;;18.00;63.40;;;;;;5043404;28;1497;-71
2024/02/26 05:54:13;;;;;;;;;;;18.00;63.40;;;;;;5042301;28;1209;-71
2024/02/26 05:56:39;;;;;;;;;;;18.00;63.30;;;;;;5042376;28;2157;-70
2024/02/26 05:59:05;;;;;;;;;;;18.00;63.30;;;;;;5045127;28;1210;-72
2024/02/26 06:01:30;;;;;;;;;;;18.00;63.20;;;;;;5043374;28;1363;-71
2024/02/26 06:03:56;;;;;;;;;;;18.00;63.20;;;;;;5049036;28;950;-72
2024/02/26 06:06:23;;;;;;;;;;;18.00;63.10;;;;;;5052779;28;1322;-70
2024/02/26 06:08:49;;;;;;;;;;;18.10;63.10;;;;;;5053814;28;1131;-72
2024/02/26 06:11:14;;;;;;;;;;;18.10;63.10;;;;;;5049842;28;1320;-72
2024/02/26 06:13:40;;;;;;;;;;;18.10;63.10;;;;;;5056453;28;1484;-72
2024/02/26 06:16:05;;;;;;;;;;;18.10;63.10;;;;;;5049991;28;1181;-72
2024/02/26 06:18:31;;;;;;;;;;;18.10;63.00;;;;;;5049286;28;1052;-73
2024/02/26 06:20:56;;;;;;;;;;;18.10;63.00;;;;;;5049965;28;1391;-72
2024/02/26 06:23:22;;;;;;;;;;;18.10;63.00;;;;;;5046789;28;1204;-72
2024/02/26 06:25:48;;;;;;;;;;;18.10;63.00;;;;;;5046116;28;1195;-70
2024/02/26 06:28:13;;;;;;;;;;;18.10;63.00;;;;;;5051619;28;1902;-72
2024/02/26 06:30:39;;;;;;;;;;;18.10;63.00;;;;;;5049288;28;1276;-72
2024/02/26 06:33:04;;;;;;;;;;;18.10;63.00;;;;;;5046540;28;1256;-72
2024/02/26 06:35:30;;;;;;;;;;;18.10;63.00;;;;;;5048307;28;1338;-71
2024/02/26 06:37:55;;;;;;;;;;;18.10;63.00;;;;;;5049690;28;1576;-72
2024/02/26 06:40:21;;;;;;;;;;;18.10;63.00;;;;;;5045593;28;1314;-71
2024/02/26 06:42:46;;;;;;;;;;;18.10;63.00;;;;;;5046702;28;1327;-71
2024/02/26 06:45:12;;;;;;;;;;;18.10;63.00;;;;;;5048440;28;1778;-73
2024/02/26 06:47:37;;;;;;;;;;;18.10;63.00;;;;;;5048736;28;1898;-72
2024/02/26 06:50:03;;;;;;;;;;;18.10;63.00;;;;;;5048696;28;1518;-72
2024/02/26 06:52:28;;;;;;;;;;;18.10;63.10;;;;;;5046181;28;1374;-71
2024/02/26 06:54:54;;;;;;;;;;;18.10;63.10;;;;;;5049268;28;1589;-72
2024/02/26 06:57:20;;;;;;;;;;;18.10;63.10;;;;;;5056607;28;914;-72
2024/02/26 06:59:47;;;;;;;;;;;18.10;63.10;;;;;;5048114;28;1090;-73
2024/02/26 07:02:16;;;;;;;;;;;18.10;63.10;;;;;;5047451;28;1374;-72
2024/02/26 07:04:42;;;;;;;;;;;18.10;61.50;;;;;;5047160;28;1409;-72
2024/02/26 07:07:07;;;;;;;;;;;18.00;59.30;;;;;;5051061;28;1894;-72
2024/02/26 07:09:33;;;;;;;;;;;18.00;59.10;;;;;;5044888;28;1251;-71
2024/02/26 07:11:58;;;;;;;;;;;18.00;59.10;;;;;;5042853;28;1657;-70
2024/02/26 07:14:24;;;;;;;;;;;18.00;59.20;;;;;;5038807;28;2114;-69
2024/02/26 07:16:50;;;;;;;;;;;18.00;59.20;;;;;;5037528;28;1404;-70
2024/02/26 07:19:15;;;;;;;;;;;18.00;59.50;;;;;;5056590;28;1430;-69
2024/02/26 07:21:41;;;;;;;;;;;17.90;59.60;;;;;;5039432;28;1307;-68
2024/02/26 07:24:06;;;;;;;;;;;17.90;59.90;;;;;;5039623;28;1434;-68
2024/02/26 07:26:32;;;;;;;;;;;17.90;60.10;;;;;;5039394;28;1902;-69
2024/02/26 07:28:58;;;;;;;;;;;17.90;60.40;;;;;;5038417;28;1587;-72
2024/02/26 07:31:23;;;;;;;;;;;17.90;60.60;;;;;;5071822;28;1457;-72
2024/02/26 07:33:49;;;;;;;;;;;18.00;61.60;;;;;;5036950;28;1395;-71
2024/02/26 07:36:14;;;;;;;;;;;17.90;61.00;;;;;;5041897;28;1306;-71
2024/02/26 07:38:39;;;;;;;;;;;17.90;61.20;;;;;;5037266;28;1565;-71
2024/02/26 07:41:08;;;;;;;;;;;17.90;61.30;;;;;;5041112;28;1315;-71
2024/02/26 07:43:34;;;;;;;;;;;17.90;61.40;;;;;;5038085;28;1544;-69
2024/02/26 07:45:59;;;;;;;;;;;17.90;61.60;;;;;;5044647;28;1580;-70
2024/02/26 07:48:24;;;;;;;;;;;17.90;61.70;;;;;;5038827;28;1965;-70
2024/02/26 07:50:50;;;;;;;;;;;17.90;61.80;;;;;;5039931;28;1457;-68
2024/02/26 07:53:15;;;;;;;;;;;17.90;61.80;;;;;;5038814;28;1492;-69
2024/02/26 07:55:41;;;;;;;;;;;17.90;61.90;;;;;;5071029;28;1209;-70
2024/02/26 07:58:06;;;;;;;;;;;17.90;62.00;;;;;;5038125;28;1607;-70
2024/02/26 08:00:32;;;;;;;;;;;17.90;62.10;;;;;;5039612;28;1445;-70
2024/02/26 08:02:58;;;;;;;;;;;17.90;62.10;;;;;;5038542;28;1299;-72
2024/02/26 08:05:24;;;;;;;;;;;17.90;62.20;;;;;;5039796;28;1476;-70
2024/02/26 08:07:50;;;;;;;;;;;17.90;62.30;;;;;;5024945;28;1922;-69
2024/02/26 08:10:16;;;;;;;;;;;17.90;62.30;;;;;;5036513;28;1277;-70
2024/02/26 08:12:41;;;;;;;;;;;17.90;62.30;;;;;;5046896;28;1450;-70
2024/02/26 08:15:07;;;;;;;;;;;17.90;62.40;;;;;;5036186;28;1102;-69
2024/02/26 08:17:33;;;;;;;;;;;17.90;63.10;;;;;;5038426;28;1428;-70
2024/02/26 08:19:59;;;;;;;;;;;17.90;62.50;;;;;;5035501;28;1627;-70
2024/02/26 08:22:24;;;;;;;;;;;17.90;62.50;;;;;;5036998;28;1855;-70
2024/02/26 08:24:50;;;;;;;;;;;17.90;62.50;;;;;;5038512;28;2132;-71
2024/02/26 08:27:18;;;;;;;;;;;17.80;62.50;;;;;;5046912;28;1901;-70
2024/02/26 08:29:46;;;;;;;;;;;17.90;62.60;;;;;;5037444;28;1381;-70
2024/02/26 08:32:15;;;;;;;;;;;17.90;62.60;;;;;;5038661;28;1361;-71
2024/02/26 08:34:40;;;;;;;;;;;17.90;62.60;;;;;;5047637;28;1539;-70
2024/02/26 08:37:06;;;;;;;;;;;17.90;62.60;;;;;;5038300;28;1322;-71
2024/02/26 08:39:31;;;;;;;;;;;17.90;62.60;;;;;;5045463;28;1551;-71
2024/02/26 08:41:57;;;;;;;;;;;17.90;62.60;;;;;;5042110;28;1390;-71
2024/02/26 08:44:23;;;;;;;;;;;17.90;62.50;;;;;;5038377;28;1480;-71
2024/02/26 08:46:48;;;;;;;;;;;17.90;62.50;;;;;;5037769;28;1898;-71
2024/02/26 08:49:14;;;;;;;;;;;17.90;62.50;;;;;;5039457;28;1655;-70
2024/02/26 08:51:43;;;;;;;;;;;17.90;62.50;;;;;;5036857;28;1482;-70
2024/02/26 08:54:09;;;;;;;;;;;17.90;62.50;;;;;;5038423;28;1163;-71
2024/02/26 08:56:34;;;;;;;;;;;18.00;62.50;;;;;;5039816;28;904;-70
2024/02/26 08:59:03;;;;;;;;;;;18.00;62.50;;;;;;5036332;28;1080;-71
2024/02/26 09:01:29;;;;;;;;;;;17.90;62.40;;;;;;5038494;28;1272;-71
2024/02/26 09:03:56;;;;;;;;;;;18.00;62.50;;;;;;5037845;28;1214;-73
2024/02/26 09:06:21;;;;;;;;;;;18.00;62.50;;;;;;5038462;28;1472;-72
2024/02/26 09:08:46;;;;;;;;;;;18.00;62.50;;;;;;5038983;28;1957;-72
2024/02/26 09:11:12;;;;;;;;;;;18.00;62.40;;;;;;5036843;28;1493;-71
2024/02/26 09:13:37;;;;;;;;;;;18.00;62.40;;;;;;5038289;28;1458;-72
2024/02/26 09:16:03;;;;;;;;;;;18.00;62.40;;;;;;5035990;28;1169;-72
2024/02/26 09:18:28;;;;;;;;;;;18.00;62.40;;;;;;5036615;28;1042;-71
2024/02/26 09:20:54;;;;;;;;;;;18.00;62.40;;;;;;5040060;28;1483;-72
2024/02/26 09:23:19;;;;;;;;;;;18.00;62.40;;;;;;5071693;28;1585;-72
2024/02/26 09:25:45;;;;;;;;;;;18.00;62.40;;;;;;5038408;28;1538;-71
2024/02/26 09:28:10;;;;;;;;;;;18.00;62.40;;;;;;5035732;28;1898;-72
2024/02/26 09:30:36;;;;;;;;;;;18.00;62.40;;;;;;5037605;28;1480;-73
2024/02/26 09:33:01;;;;;;;;;;;18.00;62.40;;;;;;5041127;28;1638;-71
2024/02/26 09:35:27;;;;;;;;;;;18.00;62.40;;;;;;5040236;28;1581;-69
2024/02/26 09:37:53;;;;;;;;;;;18.00;62.40;;;;;;5042737;28;1833;-72
2024/02/26 09:40:19;;;;;;;;;;;18.00;63.20;;;;;;5044466;28;1324;-70
2024/02/26 09:42:44;;;;;;;;;;;18.00;62.40;;;;;;5040209;28;1438;-71
2024/02/26 09:45:12;;;;;;;;;;;18.00;62.40;;;;;;5043086;28;1426;-71
2024/02/26 09:47:37;;;;;;;;;;;18.00;62.40;;;;;;5034872;28;1906;-71
2024/02/26 09:50:03;;;;;;;;;;;18.00;62.50;;;;;;5044763;28;1630;-71
2024/02/26 09:52:29;;;;;;;;;;;18.00;62.50;;;;;;5044599;28;1253;-72
2024/02/26 09:54:54;;;;;;;;;;;18.00;62.50;;;;;;5045032;28;1468;-71
2024/02/26 09:57:24;;;;;;;;;;;18.10;62.60;;;;;;5043243;28;1606;-72
2024/02/26 09:59:49;;;;;;;;;;;18.10;62.60;;;;;;5041361;28;1345;-71
2024/02/26 10:02:15;;;;;;;;;;;18.10;62.60;;;;;;5039578;28;1382;-71
2024/02/26 10:04:41;;;;;;;;;;;18.10;62.60;;;;;;5045566;28;1336;-72
2024/02/26 10:07:10;;;;;;;;;;;18.10;62.60;;;;;;5043850;28;1898;-72
2024/02/26 10:09:35;;;;;;;;;;;18.10;62.50;;;;;;5043448;28;1225;-72
2024/02/26 10:12:01;;;;;;;;;;;18.10;62.50;;;;;;5042167;28;1430;-72
2024/02/26 10:14:27;;;;;;;;;;;18.10;62.50;;;;;;5040656;28;900;-72
2024/02/26 10:16:52;;;;;;;;;;;18.10;62.50;;;;;;5045405;28;1387;-71
2024/02/26 10:19:24;;;;;;;;;;;18.10;62.50;;;;;;5041122;28;1265;-71
2024/02/26 10:21:52;;;;;;;;;;;18.10;62.50;;;;;;5075195;28;1335;-71
2024/02/26 10:24:18;;;;;;;;;;;18.10;62.50;;;;;;5041398;28;1448;-71
2024/02/26 10:26:47;;;;;;;;;;;18.10;62.50;;;;;;5039198;28;1959;-71
2024/02/26 10:29:12;;;;;;;;;;;18.10;62.50;;;;;;5042817;28;1769;-69
2024/02/26 10:31:37;;;;;;;;;;;18.10;62.40;;;;;;5041086;28;1327;-71
2024/02/26 10:34:03;;;;;;;;;;;18.10;62.50;;;;;;5048495;28;1368;-71
2024/02/26 10:36:29;;;;;;;;;;;18.10;62.60;;;;;;5039969;28;1472;-69
2024/02/26 10:38:54;;;;;;;;;;;18.10;62.50;;;;;;5040246;28;1453;-70
2024/02/26 10:41:20;;;;;;;;;;;18.10;62.60;;;;;;5037799;28;1416;-71
2024/02/26 10:43:46;;;;;;;;;;;18.10;62.60;;;;;;5037210;28;1379;-70
2024/02/26 10:46:11;;;;;;;;;;;18.10;62.70;;;;;;5040442;28;1578;-71
2024/02/26 10:48:37;;;;;;;;;;;18.10;62.70;;;;;;5039311;28;1957;-70
2024/02/26 10:51:03;;;;;;;;;;;18.10;62.70;;;;;;5072456;28;1406;-71
2024/02/26 10:53:28;;;;;;;;;;;18.10;62.80;;;;;;5043026;28;1420;-71
2024/02/26 10:55:55;;;;;;;;;;;18.10;62.80;;;;;;5022937;28;1384;-70
2024/02/26 10:58:20;;;;;;;;;;;18.10;62.80;;;;;;5042541;28;1450;-70
2024/02/26 11:00:47;;;;;;;;;;;18.10;62.80;;;;;;5040269;28;1542;-70
2024/02/26 11:03:13;;;;;;;;;;;18.10;62.80;;;;;;5071889;28;1664;-71
2024/02/26 11:05:39;;;;;;;;;;;18.10;62.80;;;;;;5039936;28;1398;-70
2024/02/26 11:08:05;;;;;;;;;;;18.10;63.30;;;;;;5039483;28;1965;-70
2024/02/26 11:10:30;;;;;;;;;;;18.10;62.90;;;;;;5042066;28;1467;-71
2024/02/26 11:12:56;;;;;;;;;;;18.20;62.80;;;;;;5041908;28;1436;-71
2024/02/26 11:15:21;;;;;;;;;;;18.20;62.80;;;;;;5037732;28;1144;-69
2024/02/26 11:17:47;;;;;;;;;;;18.20;62.80;;;;;;5039674;28;1267;-70
2024/02/26 11:20:13;;;;;;;;;;;18.20;62.80;;;;;;5038371;28;1991;-71
2024/02/26 11:22:38;;;;;;;;;;;18.20;62.80;;;;;;5055805;28;1307;-71
2024/02/26 11:25:04;;;;;;;;;;;18.20;62.80;;;;;;5039367;28;952;-72
2024/02/26 11:27:30;;;;;;;;;;;18.20;62.70;;;;;;5038436;28;1969;-71
2024/02/26 11:29:57;;;;;;;;;;;18.20;62.80;;;;;;5046125;28;1140;-70
2024/02/26 11:32:23;;;;;;;;;;;18.20;62.70;;;;;;5038476;28;1279;-71
2024/02/26 11:34:48;;;;;;;;;;;18.20;62.70;;;;;;5038584;28;1194;-71
2024/02/26 11:37:14;;;;;;;;;;;18.20;62.70;;;;;;5040550;28;1063;-73
2024/02/26 11:39:40;;;;;;;;;;;18.20;62.70;;;;;;5039444;28;886;-72
2024/02/26 11:42:08;;;;;;;;;;;18.20;62.70;;;;;;5040791;28;1359;-70
2024/02/26 11:44:35;;;;;;;;;;;18.20;62.70;;;;;;5042355;28;1535;-71
2024/02/26 11:47:09;;;;;;;;;;;18.20;62.80;;;;;;5036564;28;1909;-70
2024/02/26 11:49:35;;;;;;;;;;;18.20;62.80;;;;;;5056027;28;1472;-71
2024/02/26 11:52:08;;;;;;;;;;;18.20;62.80;;;;;;5040431;28;1533;-71
2024/02/26 11:54:45;;;;;;;;;;;18.20;62.80;;;;;;5038605;28;1753;-72
2024/02/26 11:57:30;;;;;;;;;;;18.10;62.70;;;;;;5038178;28;1575;-72
2024/02/26 11:59:56;;;;;;;;;;;18.10;62.80;;;;;;5035643;28;1534;-72
2024/02/26 12:03:02;;;;;;;;;;;18.10;62.80;;;;;;5041896;28;1288;-72
2024/02/26 12:05:30;;;;;;;;;;;18.10;62.80;;;;;;5026634;28;1642;-71
2024/02/26 12:07:56;;;;;;;;;;;18.10;62.80;;;;;;5050778;28;2030;-71
2024/02/26 12:10:34;;;;;;;;;;;18.10;62.90;;;;;;5039953;28;1416;-70
2024/02/26 12:13:03;;;;;;;;;;;18.10;62.90;;;;;;5037139;28;1452;-72
2024/02/26 12:15:32;;;;;;;;;;;18.10;62.90;;;;;;5038364;28;1288;-73
2024/02/26 12:17:58;;;;;;;;;;;18.10;63.00;;;;;;5039069;28;1641;-70
2024/02/26 12:20:24;;;;;;;;;;;18.10;63.00;;;;;;5044448;28;1506;-70
2024/02/26 12:22:49;;;;;;;;;;;18.10;63.00;;;;;;5044849;28;875;-72
2024/02/26 12:25:15;;;;;;;;;;;18.10;63.10;;;;;;5043668;28;1763;-69
2024/02/26 12:27:41;;;;;;;;;;;18.10;63.10;;;;;;5041146;28;1906;-69
2024/02/26 12:30:07;;;;;;;;;;;18.10;63.10;;;;;;5046046;28;1683;-70
2024/02/26 12:32:32;;;;;;;;;;;18.10;63.20;;;;;;5040147;28;1248;-70
2024/02/26 12:34:58;;;;;;;;;;;18.00;63.10;;;;;;5042005;28;1215;-70
2024/02/26 12:37:23;;;;;;;;;;;18.00;63.20;;;;;;5043919;28;1313;-69
2024/02/26 12:39:49;;;;;;;;;;;18.00;63.20;;;;;;5042552;28;1058;-70
2024/02/26 12:42:15;;;;;;;;;;;18.00;63.20;;;;;;5044283;28;1488;-69
2024/02/26 12:44:40;;;;;;;;;;;18.00;63.20;;;;;;5041511;28;1494;-70
2024/02/26 12:47:06;;;;;;;;;;;18.00;63.30;;;;;;5040316;28;1890;-69
2024/02/26 12:49:31;;;;;;;;;;;18.00;63.30;;;;;;5042677;28;1292;-70
2024/02/26 12:52:01;;;;;;;;;;;18.00;63.50;;;;;;5040534;28;1388;-70
2024/02/26 12:54:31;;;;;;;;;;;18.00;63.30;;;;;;5040134;28;1380;-70
2024/02/26 12:56:56;;;;;;;;;;;18.00;63.40;;;;;;5040259;28;1365;-71
2024/02/26 12:59:22;;;;;;;;;;;18.00;63.40;;;;;;5038773;28;1491;-71
2024/02/26 13:01:47;;;;;;;;;;;18.00;63.40;;;;;;5038808;28;1296;-72
2024/02/26 13:04:13;;;;;;;;;;;18.00;63.40;;;;;;5039406;28;1400;-71
2024/02/26 13:06:41;;;;;;;;;;;18.00;63.40;;;;;;5039874;28;1910;-71
2024/02/26 13:09:06;;;;;;;;;;;18.00;63.40;;;;;;5044326;28;1529;-71
2024/02/26 13:11:32;;;;;;;;;;;18.00;63.40;;;;;;5041366;28;1361;-71
2024/02/26 13:13:58;;;;;;;;;;;18.00;63.40;;;;;;5042834;28;1415;-71
2024/02/26 13:16:24;;;;;;;;;;;18.00;63.50;;;;;;5042282;28;1425;-72
2024/02/26 13:18:50;;;;;;;;;;;18.00;63.50;;;;;;5042028;28;1827;-71
2024/02/26 13:21:18;;;;;;;;;;;18.00;63.50;;;;;;5041306;28;1764;-71
2024/02/26 13:23:46;;;;;;;;;;;18.00;63.50;;;;;;5032174;28;1781;-72
2024/02/26 13:26:11;;;;;;;;;;;17.90;63.50;;;;;;5056531;28;1642;-71
2024/02/26 13:28:37;;;;;;;;;;;17.90;63.50;;;;;;5040533;28;1950;-72
2024/02/26 13:31:04;;;;;;;;;;;17.90;63.50;;;;;;5039373;28;1291;-72
2024/02/26 13:33:30;;;;;;;;;;;17.90;64.20;;;;;;5075121;28;1584;-72
2024/02/26 13:35:55;;;;;;;;;;;17.90;63.60;;;;;;5044766;28;1665;-71
2024/02/26 13:38:21;;;;;;;;;;;17.90;63.60;;;;;;5040908;28;1235;-73
2024/02/26 13:40:48;;;;;;;;;;;17.90;63.60;;;;;;5040843;28;1588;-72
2024/02/26 13:43:13;;;;;;;;;;;17.90;63.60;;;;;;5027419;28;1266;-72
2024/02/26 13:45:38;;;;;;;;;;;18.00;63.70;;;;;;5040420;28;1023;-72
2024/02/26 13:48:09;;;;;;;;;;;17.90;63.70;;;;;;5043360;28;1910;-72
2024/02/26 13:53:38;;;;;;;;;;;17.90;63.70;;;;;;5040396;28;863;-71
2024/02/26 13:56:05;;;;;;;;;;;17.90;63.70;;;;;;5048890;28;1203;-71
2024/02/26 13:58:31;;;;;;;;;;;17.90;63.70;;;;;;5040549;28;1338;-71
2024/02/26 14:00:56;;;;;;;;;;;17.90;63.80;;;;;;5039922;28;1364;-71
2024/02/26 14:03:22;;;;;;;;;;;17.90;63.80;;;;;;5038257;28;1092;-71
2024/02/26 14:05:47;;;;;;;;;;;17.90;63.80;;;;;;5040860;28;1265;-71
2024/02/26 14:08:12;;;;;;;;;;;17.90;63.80;;;;;;5041460;28;1958;-70
2024/02/26 14:10:39;;;;;;;;;;;17.90;63.80;;;;;;5042634;28;1245;-71
2024/02/26 14:13:07;;;;;;;;;;;17.90;63.90;;;;;;5044975;28;1034;-72
2024/02/26 14:15:35;;;;;;;;;;;17.90;63.90;;;;;;5041796;28;1895;-71
2024/02/26 14:18:02;;;;;;;;;;;17.90;63.90;;;;;;5040012;28;1899;-72
2024/02/26 14:20:28;;;;;;;;;;;17.90;63.90;;;;;;5039430;28;1379;-72
2024/02/26 14:22:53;;;;;;;;;;;17.90;63.90;;;;;;5041960;28;1888;-71
2024/02/26 14:25:19;;;;;;;;;;;17.80;63.90;;;;;;5039620;28;1584;-72
2024/02/26 14:27:45;;;;;;;;;;;17.90;64.00;;;;;;5038694;28;1995;-72